Time;durP1;ratioP1;P1;durP2;ratioP2;P2;SDS_P1;SDS_P2;PMS_P1;PMS_P2;Temp;Humidity;BMP_temperature;BMP_pressure;BME280_temperature;BME280_humidity;BME280_pressure;Samples;Min_cycle;Max_cycle;Signal;HPM_P1;HPM_P2
2023/03/01 00:02:11;;;;;;;5.03;4.50;;;0.00;99.90;;;;;;5056452;28;20056;-63
2023/03/01 00:04:37;;;;;;;5.10;4.60;;;0.00;99.90;;;;;;5073987;28;20055;-62
2023/03/01 00:07:02;;;;;;;5.28;4.57;;;0.00;99.90;;;;;;5055920;28;20561;-63
2023/03/01 00:09:28;;;;;;;5.13;4.65;;;-0.10;99.90;;;;;;5073300;28;20053;-62
2023/03/01 00:11:54;;;;;;;5.43;4.93;;;-0.10;99.90;;;;;;5068349;28;20665;-62
2023/03/01 00:14:20;;;;;;;5.60;5.10;;;-0.10;99.90;;;;;;5062564;28;20453;-62
2023/03/01 00:16:46;;;;;;;5.40;4.90;;;-0.10;99.90;;;;;;5058888;28;20421;-62
2023/03/01 00:19:15;;;;;;;5.50;5.00;;;-0.20;99.90;;;;;;5046289;28;20158;-63
2023/03/01 00:21:41;;;;;;;5.55;5.03;;;-0.20;99.90;;;;;;5037272;28;20555;-62
2023/03/01 00:24:07;;;;;;;5.57;5.07;;;-0.20;99.90;;;;;;5059702;28;20048;-63
2023/03/01 00:26:33;;;;;;;5.13;4.63;;;-0.20;99.90;;;;;;5060323;28;20105;-62
2023/03/01 00:28:59;;;;;;;5.53;5.03;;;-0.30;99.90;;;;;;5055718;28;20056;-62
2023/03/01 00:31:29;;;;;;;6.80;6.05;;;-0.30;99.90;;;;;;5043840;28;20127;-62
2023/03/01 00:34:00;;;;;;;6.28;5.65;;;-0.30;99.90;;;;;;5058001;28;20051;-62
2023/03/01 00:36:31;;;;;;;5.82;5.25;;;-0.40;99.90;;;;;;5059880;28;20102;-62
2023/03/01 00:38:57;;;;;;;5.38;4.88;;;-0.40;99.90;;;;;;5057143;28;20048;-63
2023/03/01 00:41:26;;;;;;;6.90;5.70;;;-0.40;99.90;;;;;;5007951;28;21126;-63
2023/03/01 00:43:53;;;;;;;5.50;5.00;;;-0.40;99.90;;;;;;5058830;28;20065;-63
2023/03/01 00:46:24;;;;;;;6.38;5.47;;;-0.50;99.90;;;;;;5053844;28;20358;-63
2023/03/01 00:48:50;;;;;;;5.78;5.18;;;-0.50;99.90;;;;;;5051249;28;20041;-63
2023/03/01 00:51:18;;;;;;;5.93;5.30;;;-0.60;99.90;;;;;;5061648;28;20121;-62
2023/03/01 00:53:45;;;;;;;6.65;5.95;;;-0.60;99.90;;;;;;5064537;28;20044;-62
2023/03/01 00:56:12;;;;;;;6.45;5.75;;;-0.70;99.90;;;;;;5053504;28;20131;-62
2023/03/01 00:58:38;;;;;;;7.38;6.40;;;-0.70;99.90;;;;;;5055289;28;20045;-62
2023/03/01 01:01:16;;;;;;;7.60;6.03;;;-0.80;99.90;;;;;;5053564;28;20048;-63
2023/03/01 01:04:15;;;;;;;7.22;6.03;;;-0.90;99.90;;;;;;5059731;28;20048;-63
2023/03/01 01:06:43;;;;;;;7.50;6.32;;;-1.00;99.90;;;;;;5017339;28;20143;-63
2023/03/01 01:09:16;;;;;;;8.32;6.72;;;-1.10;99.90;;;;;;5051863;28;20049;-63
2023/03/01 01:11:48;;;;;;;6.68;5.97;;;-1.10;99.90;;;;;;5059035;28;20048;-63
2023/03/01 01:14:14;;;;;;;9.45;7.13;;;-1.10;99.90;;;;;;5053111;28;20053;-62
2023/03/01 01:16:40;;;;;;;7.72;6.28;;;-1.10;99.90;;;;;;5051293;28;20044;-62
2023/03/01 01:19:06;;;;;;;7.13;6.32;;;-1.10;99.90;;;;;;5058020;28;20036;-63
2023/03/01 01:21:32;;;;;;;6.75;5.72;;;-1.10;99.90;;;;;;5060007;28;20040;-63
2023/03/01 01:23:58;;;;;;;6.80;5.82;;;-1.10;99.90;;;;;;5059174;28;20051;-63
2023/03/01 01:26:30;;;;;;;7.15;6.20;;;-1.20;99.90;;;;;;5054336;28;20049;-63
2023/03/01 01:28:56;;;;;;;6.47;5.60;;;-1.20;99.90;;;;;;5053719;28;20097;-63
2023/03/01 01:31:23;;;;;;;6.40;5.75;;;-1.30;99.90;;;;;;5056134;28;20047;-62
2023/03/01 01:33:50;;;;;;;6.70;5.55;;;-1.40;99.90;;;;;;5053478;28;20063;-62
2023/03/01 01:36:16;;;;;;;7.10;6.03;;;-1.40;99.90;;;;;;5057296;28;20066;-62
2023/03/01 01:38:42;;;;;;;7.13;6.43;;;-1.40;99.90;;;;;;5038041;28;20107;-62
2023/03/01 01:41:11;;;;;;;54.03;9.00;;;-1.40;99.90;;;;;;5034638;28;20600;-63
2023/03/01 01:43:46;;;;;;;19.45;7.40;;;-1.40;99.90;;;;;;5058822;28;20159;-62
2023/03/01 01:46:26;;;;;;;7.65;6.22;;;-1.50;99.90;;;;;;5052873;28;20040;-63
2023/03/01 01:48:58;;;;;;;7.28;6.32;;;-1.60;99.90;;;;;;5062224;28;20040;-63
2023/03/01 01:51:38;;;;;;;6.95;6.20;;;-1.60;99.90;;;;;;5068685;28;20056;-62
2023/03/01 01:54:12;;;;;;;7.93;6.60;;;-1.70;99.90;;;;;;5065332;28;20040;-62
2023/03/01 01:56:41;;;;;;;7.47;6.20;;;-1.70;99.90;;;;;;5062140;28;20048;-63
2023/03/01 01:59:07;;;;;;;7.18;6.45;;;-1.70;99.90;;;;;;5061433;28;20490;-62
2023/03/01 02:01:33;;;;;;;9.68;7.25;;;-1.70;99.90;;;;;;5056372;28;20929;-63
2023/03/01 02:03:59;;;;;;;8.63;7.03;;;-1.70;99.90;;;;;;5045043;28;20106;-63
2023/03/01 02:06:39;;;;;;;7.85;6.57;;;-1.70;99.90;;;;;;5033146;28;20048;-62
2023/03/01 02:09:10;;;;;;;8.63;6.90;;;-1.70;99.90;;;;;;5037597;28;20066;-62
2023/03/01 02:11:37;;;;;;;8.20;6.68;;;-1.80;99.90;;;;;;5081608;28;20063;-62
2023/03/01 02:14:04;;;;;;;7.70;6.57;;;-1.80;99.90;;;;;;5078894;28;20036;-62
2023/03/01 02:16:30;;;;;;;7.75;6.40;;;-1.80;99.90;;;;;;5056024;28;20047;-62
2023/03/01 02:18:58;;;;;;;8.75;6.78;;;-1.90;99.90;;;;;;5044810;28;20077;-62
2023/03/01 02:21:34;;;;;;;7.57;6.43;;;-1.90;99.90;;;;;;5062743;28;20545;-62
2023/03/01 02:24:27;;;;;;;8.13;6.05;;;-2.00;99.90;;;;;;5059750;28;20081;-62
2023/03/01 02:26:56;;;;;;;8.10;6.63;;;-2.00;99.90;;;;;;5043995;28;20040;-62
2023/03/01 02:29:23;;;;;;;7.35;6.22;;;-2.10;99.90;;;;;;5076226;28;20051;-62
2023/03/01 02:31:51;;;;;;;7.80;6.63;;;-2.10;99.90;;;;;;5072852;28;20055;-63
2023/03/01 02:34:22;;;;;;;8.07;6.60;;;-2.10;99.90;;;;;;5058535;28;20673;-62
2023/03/01 02:36:52;;;;;;;7.18;6.00;;;-2.10;99.90;;;;;;5055197;28;20047;-62
2023/03/01 02:39:32;;;;;;;8.32;6.68;;;-2.10;99.90;;;;;;5056900;28;20043;-63
2023/03/01 02:41:59;;;;;;;8.38;6.18;;;-2.10;99.90;;;;;;5046082;28;20486;-62
2023/03/01 02:44:25;;;;;;;8.93;6.53;;;-2.10;99.90;;;;;;5039974;28;20418;-62
2023/03/01 02:46:55;;;;;;;8.95;6.78;;;-2.10;99.90;;;;;;5056984;28;20052;-62
2023/03/01 02:49:27;;;;;;;9.18;7.20;;;-2.10;99.90;;;;;;5060602;28;20044;-63
2023/03/01 02:52:12;;;;;;;9.20;7.15;;;-2.20;99.90;;;;;;5046340;28;20394;-62
2023/03/01 02:54:41;;;;;;;9.55;7.43;;;-2.20;99.90;;;;;;5063194;28;20047;-62
2023/03/01 02:57:08;;;;;;;9.95;7.55;;;-2.20;99.90;;;;;;5083919;28;20044;-62
2023/03/01 02:59:39;;;;;;;9.20;7.10;;;-2.20;99.90;;;;;;5065670;28;20131;-62
2023/03/01 03:02:06;;;;;;;10.35;7.72;;;-2.20;99.90;;;;;;5059321;28;20056;-62
2023/03/01 03:04:32;;;;;;;11.52;8.18;;;-2.30;99.90;;;;;;5064024;28;20044;-63
2023/03/01 03:06:57;;;;;;;9.43;7.57;;;-2.30;99.90;;;;;;5063158;28;20399;-62
2023/03/01 03:09:23;;;;;;;23.60;8.80;;;-2.40;99.90;;;;;;5060011;28;20048;-62
2023/03/01 03:11:49;;;;;;;9.60;7.70;;;-2.40;99.90;;;;;;5046665;28;20040;-62
2023/03/01 03:14:16;;;;;;;9.98;7.57;;;-2.40;99.90;;;;;;5056545;28;20050;-62
2023/03/01 03:16:50;;;;;;;10.02;7.50;;;-2.50;99.90;;;;;;5060876;28;20077;-63
2023/03/01 03:19:18;;;;;;;10.00;7.85;;;-2.50;99.90;;;;;;5059845;28;20043;-62
2023/03/01 03:21:44;;;;;;;10.88;7.93;;;-2.50;99.90;;;;;;5063911;28;20036;-62
2023/03/01 03:24:10;;;;;;;11.40;8.60;;;-2.50;99.90;;;;;;5053708;28;20078;-62
2023/03/01 03:26:36;;;;;;;13.60;9.23;;;-2.50;99.90;;;;;;5066179;28;20078;-62
2023/03/01 03:29:02;;;;;;;12.82;9.55;;;-2.50;99.90;;;;;;5064009;28;20617;-62
2023/03/01 03:31:28;;;;;;;13.02;9.73;;;-2.50;99.90;;;;;;5062027;28;20044;-62
2023/03/01 03:33:54;;;;;;;13.18;9.57;;;-2.60;99.90;;;;;;5056789;28;20048;-62
2023/03/01 03:36:23;;;;;;;13.32;9.43;;;-2.60;99.90;;;;;;5059303;28;20048;-62
2023/03/01 03:38:48;;;;;;;14.75;9.90;;;-2.60;99.90;;;;;;5060635;28;20041;-62
2023/03/01 03:41:16;;;;;;;14.65;10.10;;;-2.60;99.90;;;;;;5061632;28;20110;-62
2023/03/01 03:43:43;;;;;;;16.23;10.25;;;-2.60;99.90;;;;;;5057774;28;20117;-62
2023/03/01 03:46:10;;;;;;;14.90;10.48;;;-2.60;99.90;;;;;;5052525;28;20040;-62
2023/03/01 03:48:39;;;;;;;15.18;10.50;;;-2.60;99.90;;;;;;5060113;28;20045;-62
2023/03/01 03:51:05;;;;;;;12.93;9.05;;;-2.50;99.90;;;;;;5063804;28;20107;-62
2023/03/01 03:53:32;;;;;;;13.68;9.68;;;-2.50;99.90;;;;;;5060460;28;20044;-63
2023/03/01 03:55:58;;;;;;;14.38;9.30;;;-2.60;99.90;;;;;;5061200;28;20167;-62
2023/03/01 03:58:25;;;;;;;13.23;9.10;;;-2.50;99.90;;;;;;5058153;28;20048;-62
2023/03/01 04:00:57;;;;;;;27.33;9.52;;;-2.60;99.90;;;;;;5056849;28;20045;-62
2023/03/01 04:03:25;;;;;;;95.47;10.20;;;-2.80;99.90;;;;;;5057517;28;20102;-62
2023/03/01 04:05:51;;;;;;;15.20;9.27;;;-2.80;99.90;;;;;;5061207;28;20123;-62
2023/03/01 04:08:22;;;;;;;25.63;9.25;;;-2.80;99.90;;;;;;5055515;28;20060;-62
2023/03/01 04:10:50;;;;;;;14.60;8.98;;;-2.90;99.90;;;;;;5040447;28;20056;-62
2023/03/01 04:13:22;;;;;;;46.20;9.57;;;-2.90;99.90;;;;;;5041759;28;20080;-63
2023/03/01 04:15:52;;;;;;;15.35;9.30;;;-2.90;99.90;;;;;;5034583;28;20045;-62
2023/03/01 04:18:20;;;;;;;14.48;9.75;;;-2.90;99.90;;;;;;5025073;28;20048;-62
2023/03/01 04:20:46;;;;;;;28.10;10.13;;;-2.90;99.90;;;;;;5043194;28;20059;-62
2023/03/01 04:23:18;;;;;;;19.23;10.15;;;-2.90;99.90;;;;;;5045385;28;20047;-62
2023/03/01 04:25:56;;;;;;;30.73;10.35;;;-2.80;99.90;;;;;;5048921;28;20474;-62
2023/03/01 04:28:24;;;;;;;23.50;10.35;;;-2.90;99.90;;;;;;5045964;28;20048;-62
2023/03/01 04:30:51;;;;;;;19.35;10.20;;;-2.90;99.90;;;;;;5043563;28;20102;-62
2023/03/01 04:33:18;;;;;;;20.88;10.07;;;-2.90;99.90;;;;;;5066753;28;20051;-62
2023/03/01 04:35:44;;;;;;;78.03;11.05;;;-2.90;99.90;;;;;;5040728;28;20067;-63
2023/03/01 04:38:10;;;;;;;15.52;9.52;;;-2.90;99.90;;;;;;5030733;28;20072;-62
2023/03/01 04:40:36;;;;;;;27.58;12.00;;;-2.90;99.90;;;;;;5031980;28;20047;-62
2023/03/01 04:43:03;;;;;;;16.58;9.95;;;-2.90;99.90;;;;;;5066915;28;20435;-62
2023/03/01 04:45:31;;;;;;;14.23;9.43;;;-2.90;99.90;;;;;;5061353;28;20323;-62
2023/03/01 04:47:58;;;;;;;18.30;10.48;;;-2.90;99.90;;;;;;5037118;28;20121;-62
2023/03/01 04:50:25;;;;;;;14.30;9.40;;;-2.90;99.90;;;;;;5031398;28;20048;-62
2023/03/01 04:52:52;;;;;;;32.35;10.68;;;-2.90;99.90;;;;;;5036572;28;20055;-62
2023/03/01 04:55:18;;;;;;;46.33;10.75;;;-2.90;99.90;;;;;;5040404;28;20078;-62
2023/03/01 04:57:44;;;;;;;13.88;9.23;;;-2.90;99.90;;;;;;5036592;28;20073;-62
2023/03/01 05:00:21;;;;;;;17.83;9.50;;;-2.90;99.90;;;;;;5038951;28;20041;-62
2023/03/01 05:02:59;;;;;;;20.88;9.80;;;-2.90;99.90;;;;;;5057893;28;20040;-62
2023/03/01 05:05:32;;;;;;;27.15;10.13;;;-2.90;99.90;;;;;;5032398;28;20066;-62
2023/03/01 05:08:00;;;;;;;27.52;10.15;;;-2.90;99.90;;;;;;5026162;28;20087;-62
2023/03/01 05:10:31;;;;;;;41.50;10.32;;;-3.00;99.90;;;;;;5067395;28;20062;-62
2023/03/01 05:12:58;;;;;;;37.10;10.05;;;-3.00;99.90;;;;;;5056054;28;20052;-63
2023/03/01 05:15:29;;;;;;;18.45;9.52;;;-3.00;99.90;;;;;;5046704;28;20052;-63
2023/03/01 05:18:00;;;;;;;12.23;9.13;;;-3.10;99.90;;;;;;5032354;28;20040;-61
2023/03/01 05:20:28;;;;;;;13.50;9.02;;;-3.10;99.90;;;;;;5052631;28;20044;-62
2023/03/01 05:22:58;;;;;;;11.85;8.85;;;-3.10;99.90;;;;;;5034470;28;20048;-62
2023/03/01 05:25:24;;;;;;;12.75;8.60;;;-3.10;99.90;;;;;;5068798;28;20052;-63
2023/03/01 05:27:50;;;;;;;13.27;9.18;;;-3.20;99.90;;;;;;5047590;28;20111;-62
2023/03/01 05:30:17;;;;;;;11.75;8.70;;;-3.20;99.90;;;;;;5045317;28;20050;-62
2023/03/01 05:32:46;;;;;;;14.30;9.75;;;-3.20;99.90;;;;;;5054603;28;20040;-62
2023/03/01 05:35:13;;;;;;;14.38;9.13;;;-3.10;99.90;;;;;;5056727;28;20048;-62
2023/03/01 05:37:41;;;;;;;14.20;9.77;;;-3.10;99.90;;;;;;5050480;28;20502;-62
2023/03/01 05:40:15;;;;;;;16.52;10.93;;;-3.10;99.90;;;;;;5049601;28;20406;-62
2023/03/01 05:42:55;;;;;;;16.70;10.48;;;-3.10;99.90;;;;;;5043943;28;20045;-62
2023/03/01 05:45:22;;;;;;;19.65;11.40;;;-3.10;99.90;;;;;;5066019;28;20407;-62
2023/03/01 05:47:50;;;;;;;17.40;11.40;;;-3.20;99.90;;;;;;5050576;28;20052;-62
2023/03/01 05:50:28;;;;;;;23.27;12.95;;;-3.10;99.90;;;;;;5034467;28;20260;-62
2023/03/01 05:53:00;;;;;;;19.65;12.18;;;-3.10;99.90;;;;;;5068765;28;20047;-62
2023/03/01 05:55:27;;;;;;;20.40;13.10;;;-3.10;99.90;;;;;;5069236;28;20045;-63
2023/03/01 05:57:53;;;;;;;20.67;12.52;;;-3.10;99.90;;;;;;5047260;28;20078;-62
2023/03/01 06:00:22;;;;;;;24.40;14.15;;;-3.10;99.90;;;;;;5065973;28;20040;-62
2023/03/01 06:02:48;;;;;;;20.63;12.20;;;-3.10;99.90;;;;;;5048127;28;20043;-62
2023/03/01 06:05:14;;;;;;;23.55;13.20;;;-3.10;99.90;;;;;;5067934;28;20487;-62
2023/03/01 06:07:40;;;;;;;20.00;12.32;;;-3.10;99.90;;;;;;5077216;28;20048;-62
2023/03/01 06:10:08;;;;;;;20.63;13.02;;;-3.10;99.90;;;;;;5064469;28;20056;-62
2023/03/01 06:12:34;;;;;;;19.27;11.93;;;-3.10;99.90;;;;;;5045539;28;20324;-62
2023/03/01 06:15:01;;;;;;;19.30;12.13;;;-3.10;99.90;;;;;;5069790;28;20783;-62
2023/03/01 06:17:30;;;;;;;21.38;12.38;;;-3.10;99.90;;;;;;5056040;28;20079;-62
2023/03/01 06:19:56;;;;;;;18.35;10.95;;;-3.00;99.90;;;;;;5058682;28;20039;-62
2023/03/01 06:22:21;;;;;;;17.55;11.60;;;-3.10;99.90;;;;;;5034039;28;20052;-61
2023/03/01 06:24:47;;;;;;;16.48;10.82;;;-3.10;99.90;;;;;;5075426;28;20098;-61
2023/03/01 06:27:13;;;;;;;15.98;10.30;;;-3.10;99.90;;;;;;5073825;28;20186;-62
2023/03/01 06:29:39;;;;;;;18.92;10.98;;;-3.00;99.90;;;;;;5052678;28;20071;-62
2023/03/01 06:32:05;;;;;;;18.73;11.00;;;-3.10;99.90;;;;;;5056942;28;20043;-62
2023/03/01 06:34:31;;;;;;;16.52;10.48;;;-3.10;99.90;;;;;;5057367;28;20044;-62
2023/03/01 06:36:57;;;;;;;16.65;11.02;;;-3.10;99.90;;;;;;5079282;28;20128;-62
2023/03/01 06:39:23;;;;;;;15.43;10.00;;;-3.10;99.90;;;;;;5046967;28;24318;-62
2023/03/01 06:41:49;;;;;;;14.95;10.43;;;-3.20;99.90;;;;;;5057821;28;20068;-62
2023/03/01 06:44:15;;;;;;;16.27;10.50;;;-3.20;99.90;;;;;;5082719;28;20044;-62
2023/03/01 06:46:41;;;;;;;16.33;10.60;;;-3.10;99.90;;;;;;5057350;28;20047;-62
2023/03/01 06:49:09;;;;;;;16.95;10.52;;;-3.20;99.90;;;;;;5058724;28;20838;-62
2023/03/01 06:51:38;;;;;;;14.65;10.32;;;-3.10;99.90;;;;;;5059611;28;20063;-62
2023/03/01 06:54:06;;;;;;;16.52;10.63;;;-3.20;99.90;;;;;;5045989;28;20048;-62
2023/03/01 06:56:33;;;;;;;17.25;11.20;;;-3.10;99.90;;;;;;5057862;28;20048;-62
2023/03/01 06:58:59;;;;;;;16.33;10.43;;;-3.10;99.90;;;;;;5068153;28;20097;-62
2023/03/01 07:01:25;;;;;;;18.42;9.88;;;-3.10;99.90;;;;;;5069461;28;20044;-62
2023/03/01 07:03:51;;;;;;;14.00;9.43;;;-3.10;99.90;;;;;;5083033;28;20036;-62
2023/03/01 07:06:17;;;;;;;15.02;9.80;;;-3.10;99.90;;;;;;5066417;28;20096;-62
2023/03/01 07:08:43;;;;;;;14.00;9.18;;;-3.10;99.90;;;;;;5084111;28;20037;-62
2023/03/01 07:11:09;;;;;;;13.80;9.18;;;-3.10;99.90;;;;;;5084541;28;20047;-62
2023/03/01 07:13:34;;;;;;;13.95;9.35;;;-3.10;99.90;;;;;;5082206;28;20436;-61
2023/03/01 07:16:00;;;;;;;16.60;10.88;;;-3.00;99.90;;;;;;5012410;28;20056;-62
2023/03/01 07:18:26;;;;;;;13.85;9.75;;;-3.00;99.90;;;;;;5048834;28;20044;-62
2023/03/01 07:20:52;;;;;;;14.63;10.13;;;-3.00;99.90;;;;;;5064512;28;20068;-62
2023/03/01 07:23:18;;;;;;;15.43;10.43;;;-3.00;99.90;;;;;;5056930;28;20044;-62
2023/03/01 07:25:50;;;;;;;15.25;9.82;;;-3.00;99.90;;;;;;5060837;28;20054;-62
2023/03/01 07:28:16;;;;;;;14.20;9.82;;;-2.90;99.90;;;;;;5059477;28;20066;-62
2023/03/01 07:30:42;;;;;;;13.80;10.10;;;-2.90;99.90;;;;;;5068321;28;20067;-62
2023/03/01 07:33:07;;;;;;;15.63;10.13;;;-2.90;99.90;;;;;;5051983;28;20405;-62
2023/03/01 07:35:33;;;;;;;17.27;11.10;;;-2.90;99.90;;;;;;5054933;28;22149;-61
2023/03/01 07:37:59;;;;;;;14.88;10.02;;;-2.90;99.90;;;;;;5082508;28;20043;-62
2023/03/01 07:40:25;;;;;;;17.15;11.40;;;-2.80;99.90;;;;;;5065303;28;20048;-62
2023/03/01 07:42:56;;;;;;;16.05;11.13;;;-2.80;99.90;;;;;;5047038;28;20125;-62
2023/03/01 07:45:21;;;;;;;16.67;10.98;;;-2.70;99.90;;;;;;5089863;28;20063;-62
2023/03/01 07:47:47;;;;;;;17.33;11.80;;;-2.50;99.90;;;;;;5067434;28;20036;-62
2023/03/01 07:50:13;;;;;;;16.55;11.60;;;-2.50;99.90;;;;;;5094261;28;20047;-62
2023/03/01 07:52:39;;;;;;;18.25;12.27;;;-2.50;99.90;;;;;;5074763;28;20062;-62
2023/03/01 07:55:05;;;;;;;19.27;12.73;;;-2.50;99.90;;;;;;5071128;28;20051;-62
2023/03/01 07:57:31;;;;;;;19.88;12.82;;;-2.40;99.90;;;;;;5073358;28;20434;-62
2023/03/01 07:59:57;;;;;;;20.20;13.05;;;-2.30;99.90;;;;;;5087312;28;20039;-62
2023/03/01 08:02:23;;;;;;;21.38;13.85;;;-2.30;99.90;;;;;;5069022;28;20036;-62
2023/03/01 08:04:48;;;;;;;21.75;13.43;;;-2.20;99.90;;;;;;5061303;28;20158;-62
2023/03/01 08:07:14;;;;;;;22.77;14.73;;;-2.10;99.90;;;;;;5075551;28;20080;-62
2023/03/01 08:09:40;;;;;;;23.35;15.52;;;-2.00;99.90;;;;;;5060660;28;20138;-61
2023/03/01 08:12:07;;;;;;;24.00;15.18;;;-1.90;99.90;;;;;;5081149;28;20458;-62
2023/03/01 08:14:33;;;;;;;26.85;16.05;;;-1.90;99.90;;;;;;5077215;28;20039;-62
2023/03/01 08:16:59;;;;;;;21.20;14.95;;;-1.80;99.90;;;;;;5078534;28;20043;-62
2023/03/01 08:19:25;;;;;;;23.70;15.25;;;-1.70;99.90;;;;;;5040244;28;20040;-62
2023/03/01 08:21:50;;;;;;;24.15;15.55;;;-1.70;99.90;;;;;;5065148;28;20111;-62
2023/03/01 08:24:16;;;;;;;23.80;15.52;;;-1.60;99.90;;;;;;5056358;28;20075;-62
2023/03/01 08:26:42;;;;;;;25.45;15.85;;;-1.50;99.90;;;;;;5048810;28;20051;-62
2023/03/01 08:29:08;;;;;;;24.25;15.90;;;-1.40;99.90;;;;;;5057842;28;20048;-62
2023/03/01 08:31:37;;;;;;;31.30;18.65;;;-1.40;99.90;;;;;;5047671;28;20083;-62
2023/03/01 08:34:06;;;;;;;26.58;17.80;;;-1.20;99.90;;;;;;5042525;28;20036;-62
2023/03/01 08:36:36;;;;;;;28.77;19.02;;;-1.10;99.90;;;;;;5061799;28;20054;-62
2023/03/01 08:39:03;;;;;;;27.65;18.38;;;-0.90;99.90;;;;;;5070768;28;20075;-62
2023/03/01 08:41:30;;;;;;;34.53;21.05;;;-0.80;99.90;;;;;;5047708;28;20039;-62
2023/03/01 08:43:58;;;;;;;39.13;22.02;;;-0.60;99.90;;;;;;5054924;28;20505;-62
2023/03/01 08:46:36;;;;;;;35.47;21.50;;;-0.40;99.90;;;;;;5045031;28;20470;-62
2023/03/01 08:49:11;;;;;;;36.47;22.70;;;-0.30;99.90;;;;;;5077941;28;20051;-62
2023/03/01 08:51:37;;;;;;;44.30;25.02;;;-0.10;99.90;;;;;;5063854;28;20036;-63
2023/03/01 08:54:05;;;;;;;41.47;26.20;;;0.10;99.90;;;;;;5037203;28;20562;-62
2023/03/01 08:56:31;;;;;;;44.67;26.52;;;0.30;99.90;;;;;;5065610;28;20044;-62
2023/03/01 08:58:57;;;;;;;50.33;29.15;;;0.60;99.90;;;;;;5064836;28;20113;-62
2023/03/01 09:01:23;;;;;;;64.85;34.88;;;0.60;99.90;;;;;;5072261;28;20039;-63
2023/03/01 09:03:49;;;;;;;55.83;32.17;;;0.80;99.90;;;;;;5069485;28;20096;-63
2023/03/01 09:06:15;;;;;;;63.95;37.67;;;1.00;99.90;;;;;;5070088;28;20095;-63
2023/03/01 09:08:43;;;;;;;71.05;38.70;;;1.20;99.90;;;;;;5068170;28;20047;-63
2023/03/01 09:11:11;;;;;;;65.32;36.63;;;1.40;99.90;;;;;;5066842;28;20069;-63
2023/03/01 09:13:38;;;;;;;74.50;40.13;;;1.60;99.90;;;;;;5085763;28;20040;-63
2023/03/01 09:16:06;;;;;;;72.18;41.67;;;1.80;99.90;;;;;;5045711;28;20487;-63
2023/03/01 09:18:33;;;;;;;73.15;41.63;;;2.00;99.90;;;;;;5063250;28;20044;-63
2023/03/01 09:21:07;;;;;;;67.95;40.92;;;2.20;99.90;;;;;;5066950;28;20047;-63
2023/03/01 09:23:39;;;;;;;71.03;39.25;;;2.50;99.90;;;;;;5064536;28;20502;-63
2023/03/01 09:26:06;;;;;;;64.75;39.33;;;2.60;99.90;;;;;;5068524;28;20059;-63
2023/03/01 09:28:32;;;;;;;61.08;36.55;;;2.80;99.90;;;;;;5067347;28;20048;-63
2023/03/01 09:30:59;;;;;;;66.18;38.17;;;3.00;99.90;;;;;;5065930;28;20043;-63
2023/03/01 09:33:26;;;;;;;58.17;34.75;;;3.20;99.90;;;;;;5064478;28;20445;-63
2023/03/01 09:35:57;;;;;;;52.70;34.50;;;3.40;99.90;;;;;;5045230;28;20051;-62
2023/03/01 09:38:23;;;;;;;60.05;37.28;;;3.50;99.90;;;;;;5081492;28;20390;-63
2023/03/01 09:40:49;;;;;;;52.10;32.75;;;3.70;99.90;;;;;;5063916;28;20048;-63
2023/03/01 09:43:19;;;;;;;50.63;30.55;;;3.90;99.90;;;;;;5054045;28;20039;-63
2023/03/01 09:45:47;;;;;;;43.22;29.10;;;4.00;99.90;;;;;;5064932;28;20044;-63
2023/03/01 09:48:18;;;;;;;44.83;27.17;;;4.20;99.90;;;;;;5027864;28;20052;-63
2023/03/01 09:50:46;;;;;;;38.28;21.92;;;4.40;99.90;;;;;;5085290;28;20040;-63
2023/03/01 09:53:28;;;;;;;31.02;19.80;;;4.60;99.90;;;;;;5051011;28;20520;-63
2023/03/01 09:56:11;;;;;;;28.88;18.83;;;4.80;99.90;;;;;;5053810;28;20120;-63
2023/03/01 09:59:04;;;;;;;27.48;18.58;;;5.00;99.90;;;;;;5061655;28;20040;-63
2023/03/01 10:01:39;;;;;;;;;;;5.10;99.90;;;;;;5037656;28;20127;-63
2023/03/01 10:04:24;;;;;;;31.40;20.27;;;5.30;99.90;;;;;;5064363;28;20446;-63
2023/03/01 10:07:09;;;;;;;28.52;18.63;;;5.50;99.90;;;;;;5059435;28;20067;-63
2023/03/01 10:09:37;;;;;;;29.52;18.60;;;5.60;99.90;;;;;;5068140;28;21076;-62
2023/03/01 10:12:16;;;;;;;28.83;19.40;;;5.70;99.90;;;;;;5066419;28;20059;-63
2023/03/01 10:15:04;;;;;;;31.38;20.80;;;5.80;99.90;;;;;;5054509;28;20397;-63
2023/03/01 10:17:39;;;;;;;34.13;20.95;;;5.90;99.90;;;;;;5065926;28;20101;-63
2023/03/01 10:20:19;;;;;;;32.45;21.10;;;6.10;99.90;;;;;;5062949;28;20044;-63
2023/03/01 10:22:50;;;;;;;34.60;22.23;;;6.20;99.90;;;;;;5066632;28;20036;-62
2023/03/01 10:25:27;;;;;;;34.13;22.67;;;6.30;99.90;;;;;;5066562;28;20476;-63
2023/03/01 10:27:59;;;;;;;34.03;21.15;;;6.40;99.90;;;;;;5062225;28;20043;-63
2023/03/01 10:30:32;;;;;;;;;;;6.60;99.90;;;;;;5059853;28;20086;-63
2023/03/01 10:32:58;;;;;;;30.10;20.77;;;6.70;99.90;;;;;;5032171;28;19916;-63
2023/03/01 10:35:35;;;;;;;31.17;21.23;;;6.80;99.90;;;;;;5068477;28;20656;-63
2023/03/01 10:38:10;;;;;;;33.58;22.23;;;7.00;99.90;;;;;;5051538;28;20501;-63
2023/03/01 10:40:56;;;;;;;34.67;21.80;;;7.10;99.90;;;;;;5044998;28;20113;-62
2023/03/01 10:43:32;;;;;;;30.77;20.92;;;7.20;99.90;;;;;;5054358;28;20047;-63
2023/03/01 10:45:57;;;;;;;29.38;21.63;;;7.30;99.90;;;;;;5078386;28;20048;-63
2023/03/01 10:48:28;;;;;;;29.95;20.80;;;7.30;99.90;;;;;;5043026;28;20045;-63
2023/03/01 10:51:00;;;;;;;32.70;22.02;;;7.50;99.90;;;;;;5050400;28;20047;-63
2023/03/01 10:53:37;;;;;;;30.70;20.52;;;7.60;99.90;;;;;;5046822;28;20047;-63
2023/03/01 10:56:15;;;;;;;33.22;21.95;;;7.70;99.90;;;;;;5058558;28;20043;-63
2023/03/01 10:59:04;;;;;;;28.08;20.58;;;7.80;99.90;;;;;;5066649;28;20486;-63
2023/03/01 11:01:35;;;;;;;29.88;19.90;;;7.90;99.90;;;;;;5071547;28;20048;-64
2023/03/01 11:04:06;;;;;;;27.25;20.35;;;8.10;99.90;;;;;;5070173;28;20119;-62
2023/03/01 11:06:34;;;;;;;28.17;20.65;;;8.30;99.90;;;;;;5065302;28;20040;-63
2023/03/01 11:09:20;;;;;;;24.27;18.48;;;8.40;99.90;;;;;;5062870;28;20095;-63
2023/03/01 11:11:46;;;;;;;26.73;19.02;;;8.50;99.90;;;;;;5070459;28;20053;-63
2023/03/01 11:14:18;;;;;;;24.50;18.35;;;8.50;99.90;;;;;;5066870;28;20408;-63
2023/03/01 11:16:47;;;;;;;25.60;18.03;;;8.60;99.90;;;;;;5066795;28;20055;-63
2023/03/01 11:19:19;;;;;;;20.33;15.40;;;8.70;99.90;;;;;;5063998;28;20051;-63
2023/03/01 11:21:50;;;;;;;23.60;16.60;;;8.80;99.90;;;;;;5042818;28;20116;-64
2023/03/01 11:24:18;;;;;;;21.73;16.13;;;8.90;99.90;;;;;;5051283;28;20529;-64
2023/03/01 11:26:52;;;;;;;24.60;16.30;;;9.00;99.90;;;;;;5061339;28;20079;-63
2023/03/01 11:29:31;;;;;;;19.77;15.38;;;9.20;99.90;;;;;;5057523;28;20052;-64
2023/03/01 11:32:01;;;;;;;21.20;13.93;;;9.40;99.90;;;;;;5045180;28;20052;-64
2023/03/01 11:35:03;;;;;;;20.38;14.05;;;9.50;99.90;;;;;;5061537;28;20063;-63
2023/03/01 11:37:40;;;;;;;22.17;15.35;;;9.60;99.90;;;;;;5060772;28;20067;-63
2023/03/01 11:40:22;;;;;;;17.42;13.13;;;9.70;99.90;;;;;;5040506;28;20525;-63
2023/03/01 11:42:52;;;;;;;20.58;14.07;;;9.80;99.90;;;;;;5036562;28;20055;-63
2023/03/01 11:45:22;;;;;;;19.90;14.27;;;9.90;99.90;;;;;;5056841;28;20135;-63
2023/03/01 11:48:19;;;;;;;18.55;13.23;;;10.00;99.90;;;;;;5045506;28;20222;-63
2023/03/01 11:50:49;;;;;;;17.83;13.10;;;10.00;99.90;;;;;;5056854;28;20040;-63
2023/03/01 11:53:27;;;;;;;16.65;12.10;;;10.10;99.90;;;;;;5062043;28;20052;-64
2023/03/01 11:56:11;;;;;;;15.35;11.93;;;10.10;99.90;;;;;;5043512;28;20045;-63
2023/03/01 11:58:49;;;;;;;18.38;11.95;;;10.20;99.90;;;;;;5057392;28;20185;-63
2023/03/01 12:01:26;;;;;;;18.95;11.88;;;10.40;99.40;;;;;;5059641;28;20047;-63
2023/03/01 12:04:06;;;;;;;17.85;12.80;;;10.30;99.20;;;;;;5061023;28;20044;-64
2023/03/01 12:07:10;;;;;;;17.73;13.18;;;10.40;98.50;;;;;;5056213;28;20044;-63
2023/03/01 12:09:51;;;;;;;18.42;13.35;;;10.40;98.00;;;;;;5061559;28;20036;-63
2023/03/01 12:12:57;;;;;;;16.52;12.10;;;10.40;98.40;;;;;;5042996;28;20044;-64
2023/03/01 12:15:48;;;;;;;16.30;11.75;;;10.50;98.40;;;;;;5039412;28;20084;-63
2023/03/01 12:18:42;;;;;;;16.63;11.75;;;10.50;97.80;;;;;;5059967;28;20042;-64
2023/03/01 12:21:10;;;;;;;;;;;10.60;96.90;;;;;;5060059;28;20044;-63
2023/03/01 12:24:06;;;;;;;16.92;12.80;;;10.70;97.50;;;;;;5060132;28;19924;-64
2023/03/01 12:26:39;;;;;;;20.13;14.35;;;10.80;97.20;;;;;;5063166;28;20572;-63
2023/03/01 12:29:23;;;;;;;21.70;13.52;;;10.90;96.90;;;;;;5056603;28;20510;-63
2023/03/01 12:32:03;;;;;;;18.55;13.23;;;11.00;96.30;;;;;;5042374;28;20044;-63
2023/03/01 12:34:49;;;;;;;18.40;13.80;;;11.20;96.80;;;;;;5040800;28;20048;-63
2023/03/01 12:37:40;;;;;;;18.38;12.85;;;11.50;96.50;;;;;;5060831;28;20090;-63
2023/03/01 12:40:33;;;;;;;18.25;12.70;;;11.70;95.40;;;;;;5054288;28;20049;-64
2023/03/01 12:43:07;;;;;;;;;;;11.80;95.70;;;;;;5056222;28;20044;-63
2023/03/01 12:45:39;;;;;;;15.25;11.85;;;11.90;96.60;;;;;;5058353;28;20391;-63
2023/03/01 12:48:17;;;;;;;17.57;12.33;;;11.90;95.00;;;;;;5059041;28;20047;-63
2023/03/01 12:50:48;;;;;;;15.65;11.25;;;12.10;93.20;;;;;;5059536;28;20051;-64
2023/03/01 12:53:28;;;;;;;17.38;11.27;;;12.10;93.40;;;;;;5056952;28;20185;-63